Weather observations for the past three days for
Hermiston, Hermiston Municipal Airport
Imperial (Metric)
Date Time (pdt) Wind (mph) Vis. (mi.) Weather Sky Cond. Temperature (ºF) Relative Humidity Wind Chill (°F) Heat Index (°F) Pressure Precipitation (in)
Air Dwpt 6 hour altimeter (in) sea level (mb) 1 hr 3 hr 6 hr
Max. Min.
08 04:53 SW 9 10.00 Fair CLR 55.9 37 62.1 54 49% 29.95 1013.7
08 03:53 S 8 10.00 Fair CLR 54 32 43% 29.94 1013.3
08 02:53 SW 9 10.00 Fair CLR 57 28.9 34% 29.94 1013.3
08 01:53 SW 12 10.00 Fair CLR 59 28 31% 29.93 1013.2
08 00:53 SW 9 10.00 Fair CLR 60.1 28.9 31% 29.93 1013.0
07 23:53 S 10 G 17 10.00 Fair CLR 60.1 21 22% 29.92 1012.8
07 22:53 S 12 10.00 Fair CLR 62.1 23 79 62.1 22% 29.91 1012.6
07 21:53 S 12 10.00 Fair CLR 64 26.1 24% 29.91 1012.4
07 20:53 S 8 10.00 Fair CLR 64 30 28% 29.9 1012.0
07 19:53 SW 5 10.00 Fair CLR 71.1 32 24% 29.88 1011.5
07 18:53 Calm 10.00 Fair CLR 75 36 24% 76 29.88 1011.5
07 17:53 NW 10 10.00 Fair CLR 78.1 34 20% 77 29.89 1011.7
07 16:53 Vrbl 6 10.00 Fair CLR 78.1 30 79 68 17% 77 29.9 1011.9
07 15:53 NW 8 10.00 Fair CLR 79 28.9 16% 78 29.91 1012.4
07 14:53 SW 10 10.00 Fair CLR 78.1 21.9 12% 77 29.93 1013.2
07 13:53 W 10 G 17 10.00 Fair CLR 75.9 28 17% 76 29.96 1014.1
07 12:53 W 9 10.00 Fair CLR 73.9 37 26% 29.98 1014.7
07 11:53 SW 14 G 21 10.00 Fair CLR 71.1 39.9 32% 29.99 1015.1
07 10:53 W 8 10.00 Fair CLR 68 42.1 69.1 55 39% 30 1015.6
07 09:53 W 13 10.00 Fair CLR 64.9 44.1 47% 30.02 1016.1
07 08:53 W 16 G 21 10.00 Fair CLR 63 44.1 50% 30.02 1016.2
07 07:53 SW 16 G 26 10.00 Fair CLR 59 45 60% 30.01 1016.0
07 06:53 SW 13 10.00 Fair CLR 57 46.9 69% 30 1015.4
07 05:53 SW 13 G 21 10.00 Fair CLR 55 46.9 74% 29.98 1014.9
07 04:53 SW 12 10.00 Fair CLR 57 46.9 64.9 57 69% 29.98 1014.7
07 03:53 W 16 G 29 10.00 Fair CLR 57.9 46.9 67% 29.96 1014.2
07 02:53 SW 15 G 26 10.00 Light Rain CLR 59 48.9 69% 29.97 1014.2
07 01:53 SW 14 G 21 10.00 Fair CLR 60.1 48 65% 29.97 1014.4
07 00:53 SW 14 G 23 10.00 Light Rain CLR 61 48 63% 29.96 1014.0
06 23:53 SW 17 G 29 10.00 Fair CLR 63 46 54% 29.95 1013.7
06 22:53 SW 18 G 26 10.00 Fair CLR 64.9 45 81 64.9 49% 29.94 1013.5
06 21:53 SW 18 G 30 10.00 Fair CLR 66 45 47% 29.93 1013.2
06 20:53 SW 16 G 28 10.00 Fair CLR 68 45 44% 29.92 1012.7
06 19:53 W 15 G 25 10.00 Fair CLR 71.1 46.9 42% 29.9 1012.0
06 18:53 W 17 G 28 10.00 Fair CLR 73.9 48 40% 29.88 1011.4
06 17:53 SW 13 G 28 10.00 Fair CLR 77 46.9 35% 78 29.87 1011.1
06 16:53 W 17 G 29 10.00 Fair CLR 81 48 84 73.9 32% 80 29.86 1010.8
06 15:53 W 20 G 26 10.00 Fair CLR 81 48.9 33% 80 29.87 1011.1
06 14:53 SW 15 G 25 10.00 Fair CLR 82.9 48.9 31% 81 29.89 1011.5
06 13:53 W 16 G 26 10.00 Fair CLR 82 48 31% 81 29.91 1012.3
06 12:53 W 16 10.00 Fair CLR 82 48 31% 81 29.91 1012.3
06 11:53 SW 15 G 25 10.00 Fair CLR 78.1 50 37% 79 29.92 1012.8
06 10:53 SW 15 G 26 10.00 Fair CLR 73.9 50 73.9 55.9 43% 29.95 1013.9
06 09:53 W 14 G 26 10.00 Fair CLR 70 48.9 47% 29.97 1014.5
06 08:53 W 20 G 28 10.00 Fair CLR 66.9 48.9 53% 29.97 1014.5
06 07:53 SW 15 G 22 10.00 Fair CLR 64 48.9 58% 29.97 1014.6
06 06:53 SW 12 10.00 Fair CLR 61 48.9 65% 29.96 1014.0
06 03:53 SW 7 10.00 Fair CLR 60.1 48 65% 29.91 1012.2
06 02:53 SW 5 10.00 Fair CLR 59 48 67% 29.89 1011.6
06 01:53 W 6 10.00 Fair CLR 57.9 48.9 72% 29.88 1011.4
06 00:53 SW 5 10.00 Fair CLR 61 46.9 60% 29.87 1011.2
05 23:53 Calm 10.00 Fair CLR 59 46.9 64% 29.86 1010.7
05 22:53 S 8 10.00 Fair CLR 62.1 48 84 62.1 60% 29.84 1009.9
05 21:53 S 9 10.00 Fair CLR 64.9 50 59% 29.83 1009.7
05 20:53 S 5 10.00 Fair CLR 68 48.9 51% 29.82 1009.3
05 19:53 SE 7 10.00 Fair CLR 75 48.9 40% 77 29.8 1008.7
05 18:53 E 3 10.00 Fair CLR 82 45 27% 80 29.8 1008.6
05 17:53 NE 6 10.00 Fair CLR 82.9 45 26% 81 29.8 1008.7
05 16:53 N 6 10.00 Fair CLR 84 44.1 84.9 73 25% 82 29.81 1008.9
05 15:53 E 7 10.00 Fair CLR 84 46 27% 82 29.82 1009.4
05 14:53 Vrbl 3 10.00 Fair CLR 82.9 44.1 25% 81 29.83 1009.7
05 13:53 N 8 10.00 Fair CLR 82 45 27% 80 29.85 1010.2
05 12:53 NW 8 10.00 Fair CLR 79 48 34% 79 29.86 1010.7
05 11:53 Vrbl 6 10.00 Fair CLR 78.1 50 37% 79 29.87 1010.8
05 10:53 Vrbl 7 10.00 Fair CLR 75 50 75 61 42% 78 29.87 1011.0
05 09:53 W 8 10.00 Fair CLR 72 50 46% 29.86 1010.8
05 08:53 W 12 10.00 Fair CLR 68 51.1 55% 29.86 1010.6
05 07:53 SW 13 10.00 Fair CLR 66 51.1 59% 29.85 1010.2
05 06:53 SW 6 10.00 Fair CLR 64 51.1 63% 29.83 1009.6
05 05:53 SW 7 10.00 Fair CLR 61 51.1 70% 29.81 1008.8
Date Time (pdt) Wind (mph) Vis. (mi.) Weather Sky Cond. Air Dwpt Max. Min. Relative Humidity Wind Chill (°F) Heat Index (°F) altimeter (in) sea level (mb) 1 hr 3 hr 6 hr
6 hour
Temperature (ºF) Pressure Precipitation (in)